Time;durP1;ratioP1;P1;durP2;ratioP2;P2;SDS_P1;SDS_P2;PMS_P1;PMS_P2;Temp;Humidity;BMP_temperature;BMP_pressure;BME280_temperature;BME280_humidity;BME280_pressure;Samples;Min_cycle;Max_cycle;Signal;HPM_P1;HPM_P2
2023/09/03 00:00:22;;;;;;;0.50;0.50;;;;;;;;;;5092571;28;20084;-80
2023/09/03 00:02:48;;;;;;;0.40;0.40;;;;;;;;;;5092844;28;20058;-79
2023/09/03 00:05:14;;;;;;;0.40;0.40;;;;;;;;;;5092226;28;20021;-78
2023/09/03 00:07:40;;;;;;;0.40;0.40;;;;;;;;;;5092576;28;20024;-79
2023/09/03 00:10:07;;;;;;;0.40;0.40;;;;;;;;;;5092582;28;20471;-79
2023/09/03 00:12:33;;;;;;;0.50;0.50;;;;;;;;;;5093588;28;20074;-79
2023/09/03 00:14:59;;;;;;;0.40;0.40;;;;;;;;;;5092303;28;20024;-79
2023/09/03 00:17:26;;;;;;;0.50;0.50;;;;;;;;;;5092731;28;20107;-79
2023/09/03 00:19:52;;;;;;;0.40;0.40;;;;;;;;;;5093393;28;20032;-79
2023/09/03 00:22:18;;;;;;;0.47;0.47;;;;;;;;;;5092523;28;20111;-79
2023/09/03 00:24:44;;;;;;;0.40;0.40;;;;;;;;;;5092372;28;20048;-78
2023/09/03 00:27:10;;;;;;;0.40;0.40;;;;;;;;;;5093807;28;20091;-79
2023/09/03 00:29:36;;;;;;;0.40;0.40;;;;;;;;;;5092408;28;20032;-79
2023/09/03 00:32:03;;;;;;;0.43;0.43;;;;;;;;;;5093650;28;20020;-78
2023/09/03 00:34:29;;;;;;;0.40;0.40;;;;;;;;;;5092176;28;20460;-79
2023/09/03 00:36:55;;;;;;;0.30;0.30;;;;;;;;;;5093187;28;20435;-80
2023/09/03 00:39:21;;;;;;;0.40;0.40;;;;;;;;;;5092190;28;20035;-79
2023/09/03 00:41:47;;;;;;;0.40;0.40;;;;;;;;;;5091947;28;20441;-79
2023/09/03 00:44:14;;;;;;;0.50;0.50;;;;;;;;;;5092086;28;20035;-79
2023/09/03 00:46:42;;;;;;;0.50;0.50;;;;;;;;;;5093850;28;20099;-80
2023/09/03 00:49:08;;;;;;;0.52;0.52;;;;;;;;;;5094360;28;20035;-79
2023/09/03 00:51:36;;;;;;;0.50;0.50;;;;;;;;;;5096760;28;20016;-80
2023/09/03 00:54:03;;;;;;;0.40;0.40;;;;;;;;;;5096046;28;20474;-80
2023/09/03 00:56:29;;;;;;;0.40;0.40;;;;;;;;;;5095571;28;20066;-80
2023/09/03 00:58:56;;;;;;;0.43;0.43;;;;;;;;;;5096239;28;20028;-80
2023/09/03 01:01:22;;;;;;;0.40;0.40;;;;;;;;;;5095564;28;20475;-80
2023/09/03 01:03:49;;;;;;;0.35;0.35;;;;;;;;;;5095873;28;20059;-79
2023/09/03 01:06:15;;;;;;;0.40;0.40;;;;;;;;;;5095681;28;20020;-80
2023/09/03 01:08:41;;;;;;;0.40;0.40;;;;;;;;;;5095353;28;20123;-79
2023/09/03 01:11:26;;;;;;;0.40;0.40;;;;;;;;;;5095531;28;20032;-80
2023/09/03 01:13:57;;;;;;;0.55;0.55;;;;;;;;;;5095496;28;20422;-79
2023/09/03 01:16:28;;;;;;;0.40;0.40;;;;;;;;;;5096468;28;20131;-79
2023/09/03 01:18:56;;;;;;;0.40;0.40;;;;;;;;;;5095877;28;20471;-80
2023/09/03 01:21:40;;;;;;;0.50;0.50;;;;;;;;;;5095971;28;20119;-77
2023/09/03 01:24:26;;;;;;;0.40;0.40;;;;;;;;;;5097364;28;20054;-77
2023/09/03 01:26:58;;;;;;;0.40;0.40;;;;;;;;;;5096086;28;20032;-79
2023/09/03 01:29:25;;;;;;;0.40;0.40;;;;;;;;;;5094866;28;20020;-80
2023/09/03 01:31:51;;;;;;;0.40;0.40;;;;;;;;;;5095318;28;20142;-80
2023/09/03 01:34:17;;;;;;;0.40;0.40;;;;;;;;;;5095035;28;20421;-80
2023/09/03 01:36:44;;;;;;;1.25;0.60;;;;;;;;;;5094822;28;20047;-80
2023/09/03 01:39:10;;;;;;;0.40;0.40;;;;;;;;;;5095982;28;20031;-79
2023/09/03 01:41:38;;;;;;;0.45;0.45;;;;;;;;;;5095502;28;20089;-80
2023/09/03 01:44:08;;;;;;;0.45;0.45;;;;;;;;;;5095697;28;20016;-80
2023/09/03 01:46:48;;;;;;;0.40;0.40;;;;;;;;;;5094902;28;20035;-80
2023/09/03 01:49:29;;;;;;;0.50;0.50;;;;;;;;;;5096624;28;20103;-79
2023/09/03 01:52:08;;;;;;;0.40;0.40;;;;;;;;;;5094540;28;20027;-79
2023/09/03 01:54:41;;;;;;;0.60;0.60;;;;;;;;;;5094616;28;20016;-79
2023/09/03 01:57:16;;;;;;;0.45;0.45;;;;;;;;;;5094233;28;20114;-79
2023/09/03 01:59:43;;;;;;;0.60;0.60;;;;;;;;;;5094768;28;20031;-79
2023/09/03 02:02:13;;;;;;;0.40;0.40;;;;;;;;;;5096164;28;20024;-80
2023/09/03 02:04:39;;;;;;;0.40;0.40;;;;;;;;;;5094188;28;20023;-79
2023/09/03 02:07:05;;;;;;;1.55;0.55;;;;;;;;;;5095057;28;20362;-80
2023/09/03 02:09:32;;;;;;;0.40;0.40;;;;;;;;;;5094278;28;20152;-79
2023/09/03 02:11:58;;;;;;;0.50;0.50;;;;;;;;;;5095559;28;20024;-80
2023/09/03 02:14:26;;;;;;;0.50;0.50;;;;;;;;;;5094405;28;20017;-79
2023/09/03 02:16:52;;;;;;;0.47;0.47;;;;;;;;;;5095784;28;20048;-79
2023/09/03 02:19:18;;;;;;;0.40;0.40;;;;;;;;;;5093763;28;20036;-80
2023/09/03 02:21:44;;;;;;;0.40;0.40;;;;;;;;;;5094334;28;20031;-80
2023/09/03 02:24:11;;;;;;;0.52;0.52;;;;;;;;;;5094163;28;20051;-80
2023/09/03 02:26:44;;;;;;;0.40;0.40;;;;;;;;;;5093709;28;20358;-80
2023/09/03 02:29:10;;;;;;;0.40;0.40;;;;;;;;;;5094141;28;20028;-81
2023/09/03 02:31:37;;;;;;;0.40;0.40;;;;;;;;;;5093902;28;20543;-80
2023/09/03 02:34:04;;;;;;;0.40;0.40;;;;;;;;;;5093705;28;20031;-80
2023/09/03 02:36:31;;;;;;;0.40;0.40;;;;;;;;;;5095154;28;20020;-80
2023/09/03 02:39:04;;;;;;;0.40;0.40;;;;;;;;;;5095358;28;20032;-80
2023/09/03 02:41:31;;;;;;;0.50;0.50;;;;;;;;;;5093943;28;20368;-80
2023/09/03 02:43:58;;;;;;;0.40;0.40;;;;;;;;;;5093962;28;20073;-80
2023/09/03 02:46:25;;;;;;;0.40;0.40;;;;;;;;;;5093319;28;20024;-80
2023/09/03 02:48:51;;;;;;;0.40;0.40;;;;;;;;;;5095540;28;20024;-80
2023/09/03 02:51:17;;;;;;;0.50;0.50;;;;;;;;;;5093615;28;20032;-80
2023/09/03 02:53:45;;;;;;;0.40;0.40;;;;;;;;;;5092934;28;20020;-79
2023/09/03 02:56:12;;;;;;;0.40;0.40;;;;;;;;;;5093445;28;20045;-79
2023/09/03 02:58:38;;;;;;;0.52;0.52;;;;;;;;;;5093312;28;20380;-79
2023/09/03 03:01:06;;;;;;;0.40;0.40;;;;;;;;;;5093077;28;20031;-80
2023/09/03 03:03:32;;;;;;;0.30;0.30;;;;;;;;;;5093606;28;20047;-80
2023/09/03 03:05:59;;;;;;;0.40;0.40;;;;;;;;;;5093335;28;20031;-80
2023/09/03 03:08:25;;;;;;;0.50;0.50;;;;;;;;;;5093979;28;20361;-80
2023/09/03 03:10:51;;;;;;;0.50;0.50;;;;;;;;;;5093113;28;20020;-79
2023/09/03 03:13:17;;;;;;;0.40;0.40;;;;;;;;;;5092546;28;20016;-80
2023/09/03 03:15:46;;;;;;;0.40;0.40;;;;;;;;;;5094108;28;20068;-79
2023/09/03 03:18:12;;;;;;;0.47;0.47;;;;;;;;;;5094419;28;20028;-80
2023/09/03 03:20:38;;;;;;;0.45;0.45;;;;;;;;;;5093078;28;20024;-80
2023/09/03 03:23:04;;;;;;;0.40;0.40;;;;;;;;;;5094071;28;20095;-80
2023/09/03 03:25:30;;;;;;;0.40;0.40;;;;;;;;;;5093011;28;20028;-80
2023/09/03 03:27:56;;;;;;;0.30;0.30;;;;;;;;;;5092975;28;20016;-80
2023/09/03 03:30:22;;;;;;;0.50;0.50;;;;;;;;;;5092705;28;20494;-80
2023/09/03 03:32:49;;;;;;;0.45;0.45;;;;;;;;;;5092955;28;20020;-80
2023/09/03 03:35:15;;;;;;;0.50;0.50;;;;;;;;;;5092574;28;20472;-80
2023/09/03 03:37:41;;;;;;;0.45;0.45;;;;;;;;;;5092753;28;20024;-80
2023/09/03 03:40:07;;;;;;;0.47;0.47;;;;;;;;;;5094001;28;20020;-80
2023/09/03 03:42:33;;;;;;;0.40;0.40;;;;;;;;;;5092636;28;20026;-80
2023/09/03 03:44:59;;;;;;;0.40;0.40;;;;;;;;;;5092691;28;20024;-80
2023/09/03 03:47:25;;;;;;;0.50;0.50;;;;;;;;;;5092859;28;20020;-79
2023/09/03 03:49:52;;;;;;;0.40;0.40;;;;;;;;;;5092417;28;20032;-80
2023/09/03 03:52:18;;;;;;;0.43;0.43;;;;;;;;;;5092775;28;20482;-79
2023/09/03 03:54:44;;;;;;;0.40;0.40;;;;;;;;;;5092728;28;20020;-80
2023/09/03 03:57:10;;;;;;;0.40;0.40;;;;;;;;;;5093734;28;20024;-80
2023/09/03 03:59:36;;;;;;;0.40;0.40;;;;;;;;;;5092489;28;20063;-79
2023/09/03 04:02:02;;;;;;;0.40;0.40;;;;;;;;;;5093339;28;20369;-80
2023/09/03 04:04:28;;;;;;;0.75;0.68;;;;;;;;;;5092219;28;20168;-80
2023/09/03 04:06:55;;;;;;;0.47;0.47;;;;;;;;;;5093920;28;20031;-79
2023/09/03 04:09:21;;;;;;;0.55;0.55;;;;;;;;;;5092552;28;20509;-80
2023/09/03 04:11:48;;;;;;;0.40;0.40;;;;;;;;;;5093606;28;20028;-80
2023/09/03 04:14:14;;;;;;;0.70;0.70;;;;;;;;;;5092825;28;20460;-80
2023/09/03 04:16:41;;;;;;;0.40;0.40;;;;;;;;;;5093808;28;20044;-80
2023/09/03 04:19:07;;;;;;;0.40;0.40;;;;;;;;;;5092183;28;20032;-79
2023/09/03 04:21:33;;;;;;;0.40;0.40;;;;;;;;;;5093233;28;20440;-80
2023/09/03 04:23:59;;;;;;;0.50;0.50;;;;;;;;;;5095113;28;20020;-79
2023/09/03 04:26:25;;;;;;;0.40;0.40;;;;;;;;;;5097382;28;20016;-79
2023/09/03 04:28:51;;;;;;;0.50;0.50;;;;;;;;;;5097806;28;20036;-80
2023/09/03 04:31:17;;;;;;;0.40;0.40;;;;;;;;;;5096058;28;20379;-81
2023/09/03 04:33:43;;;;;;;0.50;0.50;;;;;;;;;;5096806;28;20012;-80
2023/09/03 04:36:10;;;;;;;0.50;0.50;;;;;;;;;;5096136;28;20020;-78
2023/09/03 04:38:36;;;;;;;0.50;0.50;;;;;;;;;;5096817;28;20021;-80
2023/09/03 04:41:06;;;;;;;0.45;0.45;;;;;;;;;;5097705;28;20067;-81
2023/09/03 04:43:35;;;;;;;0.50;0.50;;;;;;;;;;5096145;28;20379;-81
2023/09/03 04:46:01;;;;;;;0.70;0.70;;;;;;;;;;5095811;28;20023;-81
2023/09/03 04:48:27;;;;;;;0.40;0.40;;;;;;;;;;5095882;28;20052;-81
2023/09/03 04:50:53;;;;;;;0.50;0.50;;;;;;;;;;5095952;28;20027;-81
2023/09/03 04:53:20;;;;;;;0.50;0.50;;;;;;;;;;5095507;28;20028;-81
2023/09/03 04:55:46;;;;;;;0.50;0.50;;;;;;;;;;5095697;28;20031;-81
2023/09/03 04:58:12;;;;;;;0.50;0.50;;;;;;;;;;5097194;28;20470;-81
2023/09/03 05:00:38;;;;;;;0.40;0.40;;;;;;;;;;5095456;28;20111;-81
2023/09/03 05:03:04;;;;;;;0.40;0.40;;;;;;;;;;5096235;28;20016;-80
2023/09/03 05:05:31;;;;;;;0.40;0.40;;;;;;;;;;5095555;28;20020;-79
2023/09/03 05:07:57;;;;;;;0.40;0.40;;;;;;;;;;5095385;28;20027;-79
2023/09/03 05:10:24;;;;;;;0.40;0.40;;;;;;;;;;5095495;28;20031;-79
2023/09/03 05:12:50;;;;;;;0.40;0.40;;;;;;;;;;5095497;28;20024;-79
2023/09/03 05:15:16;;;;;;;0.40;0.40;;;;;;;;;;5095100;28;20040;-80
2023/09/03 05:17:43;;;;;;;0.38;0.38;;;;;;;;;;5089469;28;20055;-80
2023/09/03 05:20:09;;;;;;;0.50;0.50;;;;;;;;;;5074727;28;20013;-80
2023/09/03 05:22:35;;;;;;;0.70;0.70;;;;;;;;;;5075107;28;20016;-80
2023/09/03 05:25:01;;;;;;;0.40;0.40;;;;;;;;;;5075063;28;20025;-81
2023/09/03 05:27:31;;;;;;;0.40;0.40;;;;;;;;;;5075039;28;20039;-80
2023/09/03 05:29:57;;;;;;;0.50;0.50;;;;;;;;;;5076461;28;20029;-81
2023/09/03 05:32:23;;;;;;;0.70;0.70;;;;;;;;;;5090886;28;20028;-81
2023/09/03 05:34:50;;;;;;;0.50;0.50;;;;;;;;;;5094004;28;20113;-81
2023/09/03 05:37:16;;;;;;;0.50;0.50;;;;;;;;;;5095106;28;20024;-81
2023/09/03 05:39:42;;;;;;;0.50;0.50;;;;;;;;;;5095713;28;20452;-80
2023/09/03 05:42:08;;;;;;;0.43;0.43;;;;;;;;;;5094689;28;20047;-80
2023/09/03 05:44:34;;;;;;;0.40;0.40;;;;;;;;;;5095150;28;20024;-81
2023/09/03 05:47:01;;;;;;;0.40;0.40;;;;;;;;;;5095055;28;20160;-80
2023/09/03 05:49:27;;;;;;;0.40;0.40;;;;;;;;;;5095958;28;20035;-80
2023/09/03 05:51:53;;;;;;;0.70;0.70;;;;;;;;;;5094821;28;20382;-81
2023/09/03 05:54:19;;;;;;;0.50;0.50;;;;;;;;;;5094812;28;20024;-80
2023/09/03 05:56:45;;;;;;;0.40;0.40;;;;;;;;;;5094333;28;20020;-81
2023/09/03 05:59:12;;;;;;;0.40;0.40;;;;;;;;;;5094528;28;20036;-80
2023/09/03 06:01:38;;;;;;;0.50;0.50;;;;;;;;;;5096001;28;20028;-81
2023/09/03 06:04:09;;;;;;;0.40;0.40;;;;;;;;;;5094264;28;20028;-81
2023/09/03 06:06:39;;;;;;;0.40;0.40;;;;;;;;;;5095387;28;20023;-79
2023/09/03 06:09:06;;;;;;;0.40;0.40;;;;;;;;;;5095151;28;20114;-80
2023/09/03 06:11:35;;;;;;;0.65;0.65;;;;;;;;;;5094818;28;20020;-81
2023/09/03 06:14:01;;;;;;;0.40;0.40;;;;;;;;;;5094765;28;20044;-81
2023/09/03 06:16:28;;;;;;;0.85;0.85;;;;;;;;;;5094129;28;20062;-81
2023/09/03 06:18:54;;;;;;;0.40;0.40;;;;;;;;;;5095882;28;20029;-80
2023/09/03 06:21:20;;;;;;;0.60;0.60;;;;;;;;;;5094161;28;20050;-81
2023/09/03 06:23:46;;;;;;;0.43;0.43;;;;;;;;;;5094146;28;20020;-80
2023/09/03 06:26:13;;;;;;;0.40;0.40;;;;;;;;;;5094794;28;20112;-78
2023/09/03 06:28:40;;;;;;;0.50;0.50;;;;;;;;;;5096704;28;20115;-78
2023/09/03 06:31:06;;;;;;;0.30;0.30;;;;;;;;;;5094640;28;20020;-78
2023/09/03 06:33:32;;;;;;;0.50;0.50;;;;;;;;;;5095005;28;20024;-78
2023/09/03 06:35:58;;;;;;;0.55;0.55;;;;;;;;;;5095409;28;20024;-78
2023/09/03 06:38:25;;;;;;;0.30;0.30;;;;;;;;;;5096389;28;20028;-78
2023/09/03 06:40:51;;;;;;;0.65;0.65;;;;;;;;;;5095830;28;20020;-78
2023/09/03 06:43:17;;;;;;;0.40;0.40;;;;;;;;;;5095406;28;20024;-80
2023/09/03 06:45:43;;;;;;;0.40;0.40;;;;;;;;;;5093363;28;20020;-77
2023/09/03 06:48:09;;;;;;;0.40;0.40;;;;;;;;;;5095065;28;20024;-79
2023/09/03 06:50:35;;;;;;;0.40;0.40;;;;;;;;;;5093628;28;20024;-78
2023/09/03 06:53:02;;;;;;;0.60;0.60;;;;;;;;;;5095091;28;20529;-79
2023/09/03 06:55:28;;;;;;;0.65;0.65;;;;;;;;;;5095041;28;20020;-78
2023/09/03 06:57:54;;;;;;;0.40;0.40;;;;;;;;;;5093810;28;20063;-79
2023/09/03 07:00:20;;;;;;;0.40;0.40;;;;;;;;;;5093697;28;20020;-78
2023/09/03 07:02:46;;;;;;;0.40;0.40;;;;;;;;;;5093828;28;20482;-78
2023/09/03 07:05:14;;;;;;;0.40;0.40;;;;;;;;;;5094329;28;20120;-79
2023/09/03 07:07:40;;;;;;;0.30;0.30;;;;;;;;;;5115321;28;20087;-78
2023/09/03 07:10:06;;;;;;;0.40;0.40;;;;;;;;;;5118375;28;20070;-78
2023/09/03 07:12:33;;;;;;;0.40;0.40;;;;;;;;;;5117468;28;20058;-78
2023/09/03 07:14:59;;;;;;;0.32;0.32;;;;;;;;;;5117768;28;20035;-78
2023/09/03 07:17:25;;;;;;;0.75;0.52;;;;;;;;;;5118353;28;20016;-78
2023/09/03 07:19:54;;;;;;;0.40;0.40;;;;;;;;;;5118930;28;20047;-79
2023/09/03 07:22:20;;;;;;;0.40;0.40;;;;;;;;;;5119188;28;20012;-78
2023/09/03 07:24:46;;;;;;;0.38;0.38;;;;;;;;;;5119306;28;20075;-78
2023/09/03 07:27:13;;;;;;;0.40;0.40;;;;;;;;;;5118059;28;20039;-78
2023/09/03 07:29:39;;;;;;;0.40;0.40;;;;;;;;;;5109181;28;20028;-78
2023/09/03 07:32:05;;;;;;;0.40;0.40;;;;;;;;;;5105470;28;20039;-79
2023/09/03 07:34:31;;;;;;;0.40;0.40;;;;;;;;;;5102460;28;20024;-78
2023/09/03 07:36:57;;;;;;;0.35;0.35;;;;;;;;;;5104886;28;20017;-78
2023/09/03 07:39:23;;;;;;;0.30;0.30;;;;;;;;;;5106875;28;20039;-80
2023/09/03 07:41:49;;;;;;;0.30;0.30;;;;;;;;;;5109664;28;20107;-80
2023/09/03 07:44:15;;;;;;;0.50;0.50;;;;;;;;;;5104082;28;20021;-80
2023/09/03 07:46:41;;;;;;;0.40;0.40;;;;;;;;;;5099015;28;20383;-81
2023/09/03 07:49:07;;;;;;;0.30;0.30;;;;;;;;;;5097175;28;20066;-80
2023/09/03 07:51:33;;;;;;;0.30;0.30;;;;;;;;;;5094947;28;20464;-80
2023/09/03 07:53:59;;;;;;;0.30;0.30;;;;;;;;;;5095640;28;20021;-81
2023/09/03 07:56:26;;;;;;;0.40;0.40;;;;;;;;;;5092576;28;20016;-80
2023/09/03 07:58:52;;;;;;;0.30;0.30;;;;;;;;;;5097466;28;20020;-80
2023/09/03 08:01:19;;;;;;;0.40;0.40;;;;;;;;;;5100366;28;20031;-80
2023/09/03 08:03:45;;;;;;;0.35;0.35;;;;;;;;;;5106440;28;20020;-80
2023/09/03 08:06:13;;;;;;;0.30;0.30;;;;;;;;;;5100462;28;20020;-80
2023/09/03 08:08:39;;;;;;;0.30;0.30;;;;;;;;;;5098484;28;20028;-80
2023/09/03 08:11:05;;;;;;;0.30;0.30;;;;;;;;;;5098948;28;20364;-80
2023/09/03 08:13:31;;;;;;;0.30;0.30;;;;;;;;;;5099287;28;20487;-81
2023/09/03 08:15:57;;;;;;;0.30;0.30;;;;;;;;;;5096554;28;20055;-81
2023/09/03 08:18:24;;;;;;;0.30;0.30;;;;;;;;;;5097122;28;20095;-80
2023/09/03 08:20:50;;;;;;;0.43;0.43;;;;;;;;;;5099061;28;20087;-81
2023/09/03 08:23:16;;;;;;;0.20;0.20;;;;;;;;;;5098987;28;20107;-80
2023/09/03 08:25:42;;;;;;;0.30;0.30;;;;;;;;;;5097036;28;20020;-81
2023/09/03 08:28:09;;;;;;;0.30;0.30;;;;;;;;;;5097487;28;20034;-81
2023/09/03 08:30:35;;;;;;;0.35;0.35;;;;;;;;;;5097358;28;20066;-81
2023/09/03 08:33:02;;;;;;;0.20;0.20;;;;;;;;;;5099410;28;20020;-80
2023/09/03 08:35:28;;;;;;;0.30;0.30;;;;;;;;;;5100640;28;20628;-81
2023/09/03 08:37:54;;;;;;;0.30;0.30;;;;;;;;;;5096208;28;20070;-80
2023/09/03 08:40:21;;;;;;;0.20;0.20;;;;;;;;;;5099003;28;20352;-81
2023/09/03 08:42:48;;;;;;;0.20;0.20;;;;;;;;;;5097759;28;20056;-81
2023/09/03 08:45:16;;;;;;;0.30;0.30;;;;;;;;;;5096693;28;20020;-80
2023/09/03 08:47:44;;;;;;;0.20;0.20;;;;;;;;;;5096081;28;20475;-81
2023/09/03 08:50:14;;;;;;;0.20;0.20;;;;;;;;;;5097434;28;20125;-79
2023/09/03 08:52:41;;;;;;;0.20;0.20;;;;;;;;;;5095882;28;20037;-79
2023/09/03 08:55:07;;;;;;;0.20;0.20;;;;;;;;;;5099736;28;20398;-80
2023/09/03 08:57:34;;;;;;;0.20;0.20;;;;;;;;;;5100478;28;20028;-79
2023/09/03 09:00:07;;;;;;;0.20;0.20;;;;;;;;;;5097460;28;20031;-78
2023/09/03 09:02:34;;;;;;;0.30;0.30;;;;;;;;;;5097498;28;20060;-79
2023/09/03 09:05:01;;;;;;;0.20;0.20;;;;;;;;;;5098326;28;20020;-79
2023/09/03 09:07:27;;;;;;;0.20;0.20;;;;;;;;;;5097293;28;20031;-80
2023/09/03 09:09:58;;;;;;;0.20;0.20;;;;;;;;;;5097169;28;20139;-79
2023/09/03 09:12:27;;;;;;;0.20;0.20;;;;;;;;;;5096340;28;20464;-80
2023/09/03 09:14:54;;;;;;;0.25;0.25;;;;;;;;;;5097487;28;20253;-79
2023/09/03 09:17:20;;;;;;;0.20;0.20;;;;;;;;;;5096717;28;20111;-79
2023/09/03 09:19:46;;;;;;;0.20;0.20;;;;;;;;;;5097604;28;20035;-75
2023/09/03 09:22:12;;;;;;;0.40;0.40;;;;;;;;;;5095941;28;20030;-77
2023/09/03 09:24:43;;;;;;;0.30;0.30;;;;;;;;;;5096492;28;20020;-77
2023/09/03 09:27:19;;;;;;;0.20;0.20;;;;;;;;;;5096439;28;20060;-78
2023/09/03 09:29:47;;;;;;;0.20;0.20;;;;;;;;;;5096519;28;20031;-77
2023/09/03 09:32:19;;;;;;;0.20;0.20;;;;;;;;;;5096397;28;20375;-78
2023/09/03 09:34:45;;;;;;;0.30;0.30;;;;;;;;;;5095194;28;20107;-78
2023/09/03 09:37:13;;;;;;;0.20;0.20;;;;;;;;;;5094997;28;20021;-77
2023/09/03 09:39:45;;;;;;;0.20;0.20;;;;;;;;;;5095925;28;20070;-78
2023/09/03 09:42:13;;;;;;;0.20;0.20;;;;;;;;;;5096462;28;20073;-77
2023/09/03 09:44:51;;;;;;;0.20;0.20;;;;;;;;;;5094275;28;20068;-78
2023/09/03 09:47:18;;;;;;;0.20;0.20;;;;;;;;;;5093779;28;20020;-78
2023/09/03 09:49:48;;;;;;;0.10;0.10;;;;;;;;;;5094984;28;20056;-80
2023/09/03 09:52:17;;;;;;;0.20;0.20;;;;;;;;;;5095192;28;20495;-80
2023/09/03 09:54:44;;;;;;;0.20;0.20;;;;;;;;;;5094725;28;20028;-80
2023/09/03 09:57:10;;;;;;;0.20;0.20;;;;;;;;;;5095112;28;20024;-81
2023/09/03 09:59:36;;;;;;;0.20;0.20;;;;;;;;;;5096052;28;20066;-81
2023/09/03 10:02:14;;;;;;;0.13;0.13;;;;;;;;;;5094590;28;20016;-79
2023/09/03 10:04:43;;;;;;;0.20;0.20;;;;;;;;;;5095043;28;20028;-80
2023/09/03 10:07:10;;;;;;;0.40;0.40;;;;;;;;;;5094544;28;20064;-79
2023/09/03 10:09:36;;;;;;;0.20;0.20;;;;;;;;;;5095305;28;20024;-85
2023/09/03 10:12:03;;;;;;;0.20;0.20;;;;;;;;;;5094386;28;20028;-80
2023/09/03 10:14:30;;;;;;;0.20;0.20;;;;;;;;;;5094195;28;20085;-82
2023/09/03 10:16:57;;;;;;;0.20;0.20;;;;;;;;;;5095989;28;20044;-80
2023/09/03 10:19:42;;;;;;;0.10;0.10;;;;;;;;;;5094315;28;20024;-82
2023/09/03 10:22:10;;;;;;;0.20;0.20;;;;;;;;;;5093597;28;20028;-80
2023/09/03 10:24:37;;;;;;;0.20;0.20;;;;;;;;;;5094375;28;20017;-80
2023/09/03 10:27:05;;;;;;;0.25;0.25;;;;;;;;;;5095805;28;20035;-84
2023/09/03 10:29:32;;;;;;;0.15;0.15;;;;;;;;;;5093068;28;20036;-80
2023/09/03 10:31:59;;;;;;;0.10;0.10;;;;;;;;;;5092396;28;20471;-81
2023/09/03 10:34:25;;;;;;;0.20;0.20;;;;;;;;;;5073780;28;20100;-83
2023/09/03 10:37:04;;;;;;;0.20;0.20;;;;;;;;;;5090304;28;20497;-84
2023/09/03 10:39:30;;;;;;;0.10;0.10;;;;;;;;;;5094484;28;20470;-81
2023/09/03 10:42:29;;;;;;;0.20;0.20;;;;;;;;;;5092871;28;20028;-82
2023/09/03 10:44:56;;;;;;;0.10;0.10;;;;;;;;;;5093163;28;20065;-83
2023/09/03 10:47:22;;;;;;;0.20;0.20;;;;;;;;;;5085839;28;20372;-80
2023/09/03 10:49:49;;;;;;;0.17;0.17;;;;;;;;;;5092516;28;20039;-81
2023/09/03 10:53:00;;;;;;;0.10;0.10;;;;;;;;;;5092861;28;20121;-80
2023/09/03 10:55:20;;;;;;;0.10;0.10;;;;;;;;;;5092409;28;20069;-80
2023/09/03 10:57:47;;;;;;;0.10;0.10;;;;;;;;;;5093066;28;20039;-80
2023/09/03 11:00:15;;;;;;;0.10;0.10;;;;;;;;;;5093465;28;20387;-80
2023/09/03 11:02:42;;;;;;;0.10;0.10;;;;;;;;;;5093837;28;20031;-81
2023/09/03 11:05:27;;;;;;;0.10;0.10;;;;;;;;;;5095001;28;20116;-82
2023/09/03 11:08:11;;;;;;;0.10;0.10;;;;;;;;;;5086438;28;20069;-80
2023/09/03 11:10:38;;;;;;;0.20;0.20;;;;;;;;;;5092285;28;20030;-80
2023/09/03 11:13:08;;;;;;;0.10;0.10;;;;;;;;;;5093715;28;20024;-80
2023/09/03 11:15:34;;;;;;;0.20;0.20;;;;;;;;;;5108875;28;20036;-80
2023/09/03 11:18:00;;;;;;;0.43;0.30;;;;;;;;;;5094080;28;20024;-80
2023/09/03 11:20:29;;;;;;;0.10;0.10;;;;;;;;;;5092085;28;20043;-80
2023/09/03 11:22:56;;;;;;;0.10;0.10;;;;;;;;;;5091785;28;20389;-80
2023/09/03 11:25:32;;;;;;;0.32;0.32;;;;;;;;;;5092303;28;20468;-78
2023/09/03 11:27:59;;;;;;;0.10;0.10;;;;;;;;;;5093007;28;20024;-78
2023/09/03 11:30:25;;;;;;;0.10;0.10;;;;;;;;;;5095150;28;20111;-80
2023/09/03 11:32:53;;;;;;;0.10;0.10;;;;;;;;;;5090793;28;20056;-80
2023/09/03 11:35:20;;;;;;;0.10;0.10;;;;;;;;;;5092522;28;20024;-80
2023/09/03 11:37:46;;;;;;;0.10;0.10;;;;;;;;;;5093850;28;20021;-80
2023/09/03 11:40:13;;;;;;;0.10;0.10;;;;;;;;;;5093135;28;20039;-80
2023/09/03 11:42:50;;;;;;;0.10;0.10;;;;;;;;;;5092887;28;20479;-80
2023/09/03 11:45:16;;;;;;;0.10;0.10;;;;;;;;;;5092604;28;20091;-80
2023/09/03 11:47:49;;;;;;;0.25;0.20;;;;;;;;;;5093224;28;20058;-80
2023/09/03 11:50:16;;;;;;;0.10;0.10;;;;;;;;;;5092499;28;20024;-80
2023/09/03 11:52:49;;;;;;;0.00;0.00;;;;;;;;;;5092627;28;20024;-80
2023/09/03 11:55:15;;;;;;;0.10;0.10;;;;;;;;;;5092042;28;20031;-80
2023/09/03 11:57:43;;;;;;;0.15;0.15;;;;;;;;;;5092399;28;20024;-80
2023/09/03 12:00:09;;;;;;;0.10;0.10;;;;;;;;;;5093423;28;20031;-80
2023/09/03 12:02:36;;;;;;;0.10;0.10;;;;;;;;;;5093311;28;20020;-80
2023/09/03 12:05:03;;;;;;;0.08;0.08;;;;;;;;;;5091726;28;20024;-81
2023/09/03 12:07:29;;;;;;;0.00;0.00;;;;;;;;;;5091630;28;20032;-80
2023/09/03 12:09:55;;;;;;;0.00;0.00;;;;;;;;;;5092028;28;20028;-80
2023/09/03 12:12:21;;;;;;;0.10;0.10;;;;;;;;;;5090658;28;20023;-80
2023/09/03 12:14:47;;;;;;;0.10;0.10;;;;;;;;;;5091069;28;20039;-80
2023/09/03 12:17:26;;;;;;;0.10;0.10;;;;;;;;;;5091271;28;20043;-80
2023/09/03 12:19:53;;;;;;;0.10;0.10;;;;;;;;;;5085722;28;20036;-81
2023/09/03 12:22:19;;;;;;;0.08;0.08;;;;;;;;;;5094670;28;20040;-80
2023/09/03 12:24:49;;;;;;;0.00;0.00;;;;;;;;;;5074459;28;20105;-82
2023/09/03 12:27:16;;;;;;;0.10;0.10;;;;;;;;;;5077626;28;20039;-81
2023/09/03 12:29:42;;;;;;;0.13;0.10;;;;;;;;;;5087795;28;20024;-80
2023/09/03 12:32:10;;;;;;;0.10;0.10;;;;;;;;;;5090447;28;20051;-79
2023/09/03 12:34:36;;;;;;;0.10;0.10;;;;;;;;;;5091304;28;20464;-81
2023/09/03 12:37:03;;;;;;;0.10;0.10;;;;;;;;;;5073936;28;20024;-79
2023/09/03 12:39:40;;;;;;;0.10;0.10;;;;;;;;;;5089678;28;20036;-81
2023/09/03 12:42:07;;;;;;;0.10;0.10;;;;;;;;;;5090529;28;20142;-81
2023/09/03 12:44:33;;;;;;;0.10;0.10;;;;;;;;;;5075626;28;20495;-82
2023/09/03 12:47:00;;;;;;;0.28;0.22;;;;;;;;;;5078104;28;20028;-79
2023/09/03 12:49:27;;;;;;;0.28;0.13;;;;;;;;;;5093706;28;20761;-79
2023/09/03 12:51:53;;;;;;;0.10;0.10;;;;;;;;;;5078170;28;20475;-78
2023/09/03 12:54:20;;;;;;;0.00;0.00;;;;;;;;;;5096912;28;20539;-80
2023/09/03 12:56:47;;;;;;;0.10;0.10;;;;;;;;;;5094472;28;20024;-81
2023/09/03 12:59:13;;;;;;;0.03;0.03;;;;;;;;;;5095767;28;20544;-82
2023/09/03 13:01:39;;;;;;;0.10;0.10;;;;;;;;;;5095539;28;20028;-81
2023/09/03 13:04:10;;;;;;;0.10;0.10;;;;;;;;;;5095344;28;20039;-82
2023/09/03 13:06:36;;;;;;;0.10;0.10;;;;;;;;;;5095733;28;20104;-82
2023/09/03 13:09:03;;;;;;;0.10;0.10;;;;;;;;;;5095089;28;20016;-82
2023/09/03 13:11:29;;;;;;;0.08;0.08;;;;;;;;;;5096807;28;20141;-81
2023/09/03 13:13:55;;;;;;;0.10;0.10;;;;;;;;;;5095351;28;20024;-82
2023/09/03 13:16:22;;;;;;;0.10;0.10;;;;;;;;;;5095031;28;20044;-82
2023/09/03 13:18:49;;;;;;;0.30;0.30;;;;;;;;;;5109558;28;20038;-81
2023/09/03 13:21:16;;;;;;;0.10;0.10;;;;;;;;;;5095533;28;20107;-81
2023/09/03 13:23:42;;;;;;;0.10;0.10;;;;;;;;;;5096145;28;20028;-81
2023/09/03 13:26:08;;;;;;;0.08;0.08;;;;;;;;;;5095603;28;20511;-82
2023/09/03 13:28:34;;;;;;;0.10;0.10;;;;;;;;;;5097765;28;20029;-80
2023/09/03 13:31:02;;;;;;;0.10;0.10;;;;;;;;;;5098605;28;20039;-81
2023/09/03 13:33:28;;;;;;;0.10;0.10;;;;;;;;;;5096561;28;20027;-81
2023/09/03 13:35:55;;;;;;;0.10;0.10;;;;;;;;;;5096258;28;20028;-81
2023/09/03 13:38:21;;;;;;;0.10;0.10;;;;;;;;;;5094353;28;20565;-80
2023/09/03 13:40:49;;;;;;;0.10;0.10;;;;;;;;;;5094990;28;20055;-81
2023/09/03 13:43:17;;;;;;;0.08;0.08;;;;;;;;;;5094946;28;20023;-81
2023/09/03 13:45:53;;;;;;;0.00;0.00;;;;;;;;;;5094659;28;20020;-82
2023/09/03 13:48:19;;;;;;;0.00;0.00;;;;;;;;;;5100491;28;20020;-80
2023/09/03 13:50:45;;;;;;;0.15;0.10;;;;;;;;;;5098064;28;20100;-83
2023/09/03 13:53:12;;;;;;;0.00;0.00;;;;;;;;;;5096326;28;20024;-85
2023/09/03 13:55:38;;;;;;;0.10;0.10;;;;;;;;;;5094034;28;20024;-83
2023/09/03 13:58:05;;;;;;;0.00;0.00;;;;;;;;;;5095923;28;20020;-83
2023/09/03 14:00:31;;;;;;;0.10;0.10;;;;;;;;;;5095718;28;20026;-83
2023/09/03 14:02:57;;;;;;;0.00;0.00;;;;;;;;;;5096134;28;20442;-82
2023/09/03 14:05:23;;;;;;;0.10;0.10;;;;;;;;;;5094630;28;20021;-84
2023/09/03 14:07:49;;;;;;;0.10;0.10;;;;;;;;;;5095993;28;20486;-83
2023/09/03 14:10:16;;;;;;;0.10;0.10;;;;;;;;;;5095151;28;20062;-85
2023/09/03 14:12:42;;;;;;;0.10;0.10;;;;;;;;;;5095101;28;20490;-84
2023/09/03 14:15:08;;;;;;;0.03;0.03;;;;;;;;;;5094900;28;20048;-83
2023/09/03 14:17:35;;;;;;;0.00;0.00;;;;;;;;;;5095265;28;20027;-78
2023/09/03 14:20:02;;;;;;;0.10;0.10;;;;;;;;;;5095423;28;20074;-80
2023/09/03 14:22:28;;;;;;;0.10;0.10;;;;;;;;;;5094251;28;20016;-79
2023/09/03 14:24:54;;;;;;;0.17;0.17;;;;;;;;;;5095878;28;20016;-81
2023/09/03 14:27:21;;;;;;;0.10;0.10;;;;;;;;;;5094316;28;20024;-80
2023/09/03 14:29:47;;;;;;;0.30;0.20;;;;;;;;;;5094183;28;20020;-79
2023/09/03 14:32:13;;;;;;;0.10;0.10;;;;;;;;;;5095193;28;20052;-80
2023/09/03 14:34:40;;;;;;;0.10;0.10;;;;;;;;;;5094098;28;20039;-80
2023/09/03 14:37:06;;;;;;;0.10;0.10;;;;;;;;;;5094883;28;20035;-80
2023/09/03 14:39:32;;;;;;;0.10;0.10;;;;;;;;;;5094193;28;20032;-80
2023/09/03 14:41:59;;;;;;;0.10;0.10;;;;;;;;;;5094274;28;20375;-81
2023/09/03 14:44:25;;;;;;;0.43;0.28;;;;;;;;;;5095500;28;20024;-80